AUA36P LOWW-LFPG
Flight info
| Callsign | AUA36P |
|---|---|
| Flight time | 1h 55m |
| Altitude | 36000 |
| Route | MEDIX1C/29 MEDIX DCT RENKA DCT ASPAT DCT VIBOM DCT BETEX DCT IDOSA DCT TOLVU DCT RAPOR DCT VEDUS |
| Aircraft | A320/M-SDE3FGHIRWY/LB1 |
Departure
| Time | 2026-04-30 18:36 |
|---|---|
| Airport | Vienna International Airport (LOWW) |
Arrival
| Time | 2026-04-30 20:31 |
|---|---|
| Airport | Charles de Gaulle International Airport (LFPG) |
| Time | Latitude | Longitude | Altitude | Speed | Heading |
|---|---|---|---|---|---|
| 2026-04-30 18:08 | 48.11658 | 16.56955 | 622 ft | 0 kts | 26° |
| 2026-04-30 18:26 | 48.11649 | 16.56947 | 609 ft | 2 kts | 65° |
| 2026-04-30 18:26 | 48.11642 | 16.56924 | 620 ft | 2 kts | 64° |
| 2026-04-30 18:26 | 48.11635 | 16.56901 | 625 ft | 2 kts | 64° |
| 2026-04-30 18:27 | 48.11620 | 16.56855 | 622 ft | 2 kts | 64° |
| 2026-04-30 18:27 | 48.11613 | 16.56832 | 619 ft | 2 kts | 64° |
| 2026-04-30 18:28 | 48.11608 | 16.56809 | 616 ft | 0 kts | 116° |
| 2026-04-30 18:29 | 48.11608 | 16.56811 | 616 ft | 2 kts | 114° |
| 2026-04-30 18:30 | 48.11552 | 16.56920 | 614 ft | 9 kts | 169° |
| 2026-04-30 18:30 | 48.11429 | 16.56848 | 609 ft | 9 kts | 203° |
| 2026-04-30 18:31 | 48.11357 | 16.56836 | 620 ft | 13 kts | 142° |
| 2026-04-30 18:31 | 48.11287 | 16.57033 | 613 ft | 12 kts | 117° |
| 2026-04-30 18:32 | 48.11190 | 16.57331 | 613 ft | 17 kts | 116° |
| 2026-04-30 18:32 | 48.11146 | 16.57465 | 616 ft | 11 kts | 116° |
| 2026-04-30 18:32 | 48.11060 | 16.57513 | 616 ft | 2 kts | 206° |
| 2026-04-30 18:34 | 48.11027 | 16.57489 | 609 ft | 9 kts | 206° |
| 2026-04-30 18:34 | 48.10960 | 16.57400 | 614 ft | 5 kts | 284° |
| 2026-04-30 18:34 | 48.10972 | 16.57358 | 619 ft | 3 kts | 296° |
| 2026-04-30 18:35 | 48.10981 | 16.57330 | 617 ft | 5 kts | 296° |
| 2026-04-30 18:35 | 48.11081 | 16.57024 | 612 ft | 69 kts | 296° |
| 2026-04-30 18:35 | 48.11385 | 16.56094 | 609 ft | 127 kts | 296° |
| 2026-04-30 18:36 | 48.12282 | 16.53042 | 1197 ft | 172 kts | 278° |
| 2026-04-30 18:36 | 48.12150 | 16.51225 | 1864 ft | 177 kts | 264° |
| 2026-04-30 18:36 | 48.11638 | 16.47130 | 2464 ft | 230 kts | 260° |
| 2026-04-30 18:37 | 48.11208 | 16.44695 | 2913 ft | 253 kts | 257° |
| 2026-04-30 18:37 | 48.10729 | 16.42083 | 3634 ft | 265 kts | 257° |
| 2026-04-30 18:37 | 48.10235 | 16.39399 | 4484 ft | 269 kts | 257° |
| 2026-04-30 18:37 | 48.09779 | 16.36670 | 5341 ft | 273 kts | 267° |
| 2026-04-30 18:38 | 48.09778 | 16.33850 | 6241 ft | 273 kts | 275° |
| 2026-04-30 18:38 | 48.09859 | 16.30984 | 7021 ft | 279 kts | 276° |
| 2026-04-30 18:38 | 48.09941 | 16.28050 | 7810 ft | 284 kts | 275° |
| 2026-04-30 18:38 | 48.10009 | 16.25076 | 8631 ft | 288 kts | 275° |
| 2026-04-30 18:39 | 48.10069 | 16.22064 | 9486 ft | 291 kts | 275° |
| 2026-04-30 18:39 | 48.10156 | 16.19034 | 10299 ft | 293 kts | 281° |
| 2026-04-30 18:39 | 48.10688 | 16.16052 | 10780 ft | 305 kts | 293° |
| 2026-04-30 18:39 | 48.11505 | 16.13040 | 11017 ft | 325 kts | 297° |
| 2026-04-30 18:40 | 48.12457 | 16.09875 | 11569 ft | 334 kts | 298° |
| 2026-04-30 18:40 | 48.13403 | 16.06662 | 12260 ft | 340 kts | 297° |
| 2026-04-30 18:40 | 48.14316 | 16.03366 | 12982 ft | 344 kts | 296° |
| 2026-04-30 18:40 | 48.15192 | 16.00007 | 13680 ft | 349 kts | 295° |
| 2026-04-30 18:41 | 48.16046 | 15.96574 | 14316 ft | 355 kts | 295° |
| 2026-04-30 18:41 | 48.16893 | 15.93076 | 14925 ft | 359 kts | 294° |
| 2026-04-30 18:41 | 48.17740 | 15.89541 | 15533 ft | 362 kts | 294° |
| 2026-04-30 18:41 | 48.18592 | 15.85976 | 16166 ft | 365 kts | 295° |
| 2026-04-30 18:42 | 48.19454 | 15.82375 | 16804 ft | 368 kts | 295° |
| 2026-04-30 18:42 | 48.21211 | 15.75105 | 18040 ft | 374 kts | 295° |
| 2026-04-30 18:42 | 48.22104 | 15.71427 | 18653 ft | 377 kts | 295° |
| 2026-04-30 18:45 | 48.30860 | 15.32074 | 23566 ft | 422 kts | 290° |
| 2026-04-30 18:45 | 48.31555 | 15.27719 | 24028 ft | 425 kts | 290° |
| 2026-04-30 18:45 | 48.32238 | 15.23437 | 24415 ft | 428 kts | 291° |
| 2026-04-30 18:46 | 48.32936 | 15.19070 | 24741 ft | 431 kts | 291° |
| 2026-04-30 18:46 | 48.33640 | 15.14664 | 25087 ft | 435 kts | 291° |
| 2026-04-30 18:46 | 48.34346 | 15.10222 | 25466 ft | 439 kts | 291° |
| 2026-04-30 18:46 | 48.35056 | 15.05746 | 25840 ft | 441 kts | 291° |
| 2026-04-30 18:47 | 48.35771 | 15.01245 | 26209 ft | 444 kts | 291° |
| 2026-04-30 18:47 | 48.36489 | 14.96711 | 26565 ft | 447 kts | 291° |
| 2026-04-30 18:47 | 48.37206 | 14.92145 | 26897 ft | 450 kts | 291° |
| 2026-04-30 18:47 | 48.37920 | 14.87577 | 27237 ft | 453 kts | 291° |
| 2026-04-30 18:48 | 48.38642 | 14.82957 | 27567 ft | 455 kts | 291° |
| 2026-04-30 18:48 | 48.39366 | 14.78307 | 27849 ft | 458 kts | 291° |
| 2026-04-30 18:48 | 48.40093 | 14.73629 | 28155 ft | 461 kts | 291° |
| 2026-04-30 18:48 | 48.40824 | 14.68915 | 28480 ft | 464 kts | 291° |
| 2026-04-30 18:49 | 48.41560 | 14.64165 | 28795 ft | 467 kts | 291° |
| 2026-04-30 18:49 | 48.42298 | 14.59390 | 29100 ft | 470 kts | 291° |
| 2026-04-30 18:49 | 48.43035 | 14.54591 | 29404 ft | 472 kts | 291° |
| 2026-04-30 18:49 | 48.43771 | 14.49779 | 29700 ft | 475 kts | 291° |
| 2026-04-30 18:50 | 48.44518 | 14.44897 | 29990 ft | 477 kts | 291° |
| 2026-04-30 18:50 | 48.45011 | 14.41664 | 30189 ft | 479 kts | 291° |
| 2026-04-30 18:50 | 48.45756 | 14.36762 | 30417 ft | 481 kts | 291° |
| 2026-04-30 18:50 | 48.46500 | 14.31840 | 30656 ft | 484 kts | 291° |
| 2026-04-30 18:51 | 48.47248 | 14.26880 | 30898 ft | 485 kts | 291° |
| 2026-04-30 18:51 | 48.47997 | 14.21909 | 31156 ft | 486 kts | 291° |
| 2026-04-30 18:51 | 48.48743 | 14.16935 | 31387 ft | 488 kts | 291° |
| 2026-04-30 18:51 | 48.49488 | 14.11949 | 31635 ft | 489 kts | 291° |
| 2026-04-30 18:52 | 48.50230 | 14.06960 | 31976 ft | 487 kts | 291° |
| 2026-04-30 18:52 | 48.50966 | 14.01983 | 32341 ft | 485 kts | 291° |
| 2026-04-30 18:52 | 48.51698 | 13.97032 | 32700 ft | 483 kts | 291° |
| 2026-04-30 18:52 | 48.52431 | 13.92091 | 32983 ft | 482 kts | 291° |
| 2026-04-30 18:53 | 48.53163 | 13.87157 | 33321 ft | 481 kts | 291° |
| 2026-04-30 18:53 | 48.53890 | 13.82245 | 33654 ft | 480 kts | 291° |
| 2026-04-30 18:53 | 48.54613 | 13.77328 | 33977 ft | 479 kts | 291° |
| 2026-04-30 18:53 | 48.55317 | 13.72487 | 34309 ft | 478 kts | 291° |
| 2026-04-30 18:54 | 48.56036 | 13.67526 | 34616 ft | 476 kts | 290° |
| 2026-04-30 18:54 | 48.56729 | 13.62722 | 34896 ft | 475 kts | 290° |
| 2026-04-30 18:54 | 48.57427 | 13.57860 | 35137 ft | 473 kts | 290° |
| 2026-04-30 18:54 | 48.58123 | 13.53005 | 35360 ft | 471 kts | 290° |
| 2026-04-30 18:55 | 48.58994 | 13.48295 | 35636 ft | 462 kts | 298° |
| 2026-04-30 18:55 | 48.61141 | 13.39165 | 36142 ft | 459 kts | 297° |
| 2026-04-30 18:55 | 48.62201 | 13.34634 | 36343 ft | 458 kts | 297° |
| 2026-04-30 18:56 | 48.65345 | 13.21123 | 36404 ft | 452 kts | 297° |
| 2026-04-30 18:57 | 48.68451 | 13.07679 | 36409 ft | 450 kts | 297° |
| 2026-04-30 18:57 | 48.70497 | 12.98746 | 36410 ft | 449 kts | 297° |
| 2026-04-30 18:58 | 48.73564 | 12.85338 | 36412 ft | 449 kts | 297° |
| 2026-04-30 18:59 | 48.76614 | 12.71908 | 36410 ft | 449 kts | 297° |
| 2026-04-30 19:00 | 48.80641 | 12.54036 | 36404 ft | 449 kts | 297° |
| 2026-04-30 19:01 | 48.84658 | 12.36072 | 36408 ft | 450 kts | 296° |
| 2026-04-30 19:02 | 48.87652 | 12.22567 | 36398 ft | 450 kts | 296° |
| 2026-04-30 19:03 | 48.91621 | 12.04539 | 36412 ft | 450 kts | 296° |
| 2026-04-30 19:04 | 48.95559 | 11.86489 | 36384 ft | 449 kts | 295° |
| 2026-04-30 19:05 | 48.99461 | 11.68434 | 36389 ft | 449 kts | 295° |
| 2026-04-30 19:06 | 49.03328 | 11.50414 | 36344 ft | 449 kts | 295° |
| 2026-04-30 19:06 | 49.06213 | 11.36847 | 36386 ft | 448 kts | 294° |
| 2026-04-30 19:07 | 49.09079 | 11.23283 | 36390 ft | 448 kts | 294° |
| 2026-04-30 19:08 | 49.12871 | 11.05181 | 36374 ft | 448 kts | 294° |
| 2026-04-30 19:09 | 49.15701 | 10.91586 | 36399 ft | 448 kts | 294° |
| 2026-04-30 19:09 | 49.17584 | 10.82516 | 36417 ft | 448 kts | 294° |
| 2026-04-30 19:10 | 49.21200 | 10.64279 | 36395 ft | 449 kts | 291° |
| 2026-04-30 19:11 | 49.23606 | 10.50400 | 36369 ft | 450 kts | 290° |
| 2026-04-30 19:12 | 49.25211 | 10.41148 | 36381 ft | 450 kts | 290° |
| 2026-04-30 19:12 | 49.26838 | 10.31906 | 36380 ft | 450 kts | 291° |
| 2026-04-30 19:13 | 49.30095 | 10.13411 | 36341 ft | 449 kts | 290° |
| 2026-04-30 19:14 | 49.31702 | 10.04159 | 36342 ft | 449 kts | 290° |
| 2026-04-30 19:14 | 49.33305 | 9.94897 | 36346 ft | 449 kts | 290° |
| 2026-04-30 19:15 | 49.34884 | 9.85679 | 36345 ft | 450 kts | 290° |
| 2026-04-30 19:15 | 49.37254 | 9.71750 | 36340 ft | 450 kts | 289° |
| 2026-04-30 19:16 | 49.38829 | 9.62466 | 36352 ft | 449 kts | 289° |
| 2026-04-30 19:17 | 49.41171 | 9.48526 | 36356 ft | 449 kts | 289° |
| 2026-04-30 19:17 | 49.43501 | 9.34591 | 36341 ft | 449 kts | 288° |
| 2026-04-30 19:18 | 49.45811 | 9.20631 | 36340 ft | 449 kts | 288° |
| 2026-04-30 19:19 | 49.47308 | 9.11294 | 36337 ft | 450 kts | 287° |
| 2026-04-30 19:19 | 49.49260 | 8.97154 | 36321 ft | 451 kts | 285° |
| 2026-04-30 19:20 | 49.50531 | 8.87700 | 36324 ft | 451 kts | 285° |
| 2026-04-30 19:21 | 49.52477 | 8.73523 | 36320 ft | 451 kts | 285° |
| 2026-04-30 19:22 | 49.55059 | 8.54611 | 36311 ft | 452 kts | 285° |
| 2026-04-30 19:23 | 49.58850 | 8.26176 | 36333 ft | 452 kts | 285° |
| 2026-04-30 19:24 | 49.60724 | 8.12001 | 36332 ft | 452 kts | 285° |
| 2026-04-30 19:25 | 49.63800 | 7.88292 | 36332 ft | 450 kts | 284° |
| 2026-04-30 19:26 | 49.66216 | 7.69350 | 36328 ft | 450 kts | 284° |
| 2026-04-30 19:27 | 49.68011 | 7.55137 | 36319 ft | 450 kts | 283° |
| 2026-04-30 19:28 | 49.69799 | 7.40916 | 36331 ft | 450 kts | 283° |
| 2026-04-30 19:29 | 49.72143 | 7.21939 | 36316 ft | 450 kts | 283° |
| 2026-04-30 19:30 | 49.73169 | 7.02785 | 36297 ft | 452 kts | 265° |
| 2026-04-30 19:31 | 49.71802 | 6.83442 | 36282 ft | 453 kts | 265° |
| 2026-04-30 19:31 | 49.70764 | 6.68997 | 36284 ft | 453 kts | 264° |
| 2026-04-30 19:32 | 49.70073 | 6.59332 | 36293 ft | 453 kts | 264° |
| 2026-04-30 19:32 | 49.69371 | 6.49678 | 36302 ft | 452 kts | 264° |
| 2026-04-30 19:33 | 49.68649 | 6.40030 | 36311 ft | 452 kts | 264° |
| 2026-04-30 19:33 | 49.67913 | 6.30386 | 36306 ft | 452 kts | 263° |
| 2026-04-30 19:34 | 49.67180 | 6.20754 | 36313 ft | 451 kts | 263° |
| 2026-04-30 19:35 | 49.66079 | 6.06324 | 36309 ft | 451 kts | 263° |
| 2026-04-30 19:35 | 49.65325 | 5.96732 | 36128 ft | 452 kts | 263° |
| 2026-04-30 19:35 | 49.64944 | 5.91939 | 35873 ft | 450 kts | 263° |
| 2026-04-30 19:36 | 49.64560 | 5.87141 | 35631 ft | 449 kts | 263° |
| 2026-04-30 19:36 | 49.64180 | 5.82377 | 35359 ft | 446 kts | 262° |
| 2026-04-30 19:36 | 49.63425 | 5.72921 | 34856 ft | 442 kts | 262° |
| 2026-04-30 19:37 | 49.63047 | 5.68216 | 34613 ft | 441 kts | 262° |
| 2026-04-30 19:37 | 49.62668 | 5.63537 | 34369 ft | 439 kts | 262° |
| 2026-04-30 19:37 | 49.62286 | 5.58871 | 34103 ft | 437 kts | 262° |
| 2026-04-30 19:37 | 49.61905 | 5.54234 | 33826 ft | 435 kts | 262° |
| 2026-04-30 19:38 | 49.61524 | 5.49615 | 33560 ft | 434 kts | 262° |
| 2026-04-30 19:38 | 49.61144 | 5.45004 | 33289 ft | 433 kts | 262° |
| 2026-04-30 19:38 | 49.60891 | 5.41958 | 33115 ft | 432 kts | 262° |
| 2026-04-30 19:38 | 49.60506 | 5.37373 | 32841 ft | 431 kts | 261° |
| 2026-04-30 19:39 | 49.59994 | 5.31337 | 32374 ft | 426 kts | 261° |
| 2026-04-30 19:39 | 49.59610 | 5.26816 | 31860 ft | 424 kts | 261° |
| 2026-04-30 19:39 | 49.59351 | 5.23773 | 31525 ft | 423 kts | 261° |
| 2026-04-30 19:39 | 49.59157 | 5.19268 | 31023 ft | 422 kts | 270° |
| 2026-04-30 19:40 | 49.59202 | 5.14763 | 30539 ft | 420 kts | 270° |
| 2026-04-30 19:40 | 49.59246 | 5.10267 | 30008 ft | 418 kts | 270° |
| 2026-04-30 19:40 | 49.59286 | 5.05807 | 29521 ft | 415 kts | 270° |
| 2026-04-30 19:40 | 49.59323 | 5.01382 | 29033 ft | 412 kts | 269° |
| 2026-04-30 19:41 | 49.59355 | 4.96979 | 28558 ft | 409 kts | 269° |
| 2026-04-30 19:41 | 49.59384 | 4.92608 | 28087 ft | 407 kts | 269° |
| 2026-04-30 19:41 | 49.59413 | 4.88262 | 27611 ft | 405 kts | 269° |
| 2026-04-30 19:41 | 49.59444 | 4.83989 | 27141 ft | 403 kts | 269° |
| 2026-04-30 19:42 | 49.59472 | 4.79630 | 26666 ft | 400 kts | 269° |
| 2026-04-30 19:42 | 49.59497 | 4.75346 | 26201 ft | 399 kts | 269° |
| 2026-04-30 19:42 | 49.59522 | 4.71080 | 25738 ft | 397 kts | 269° |
| 2026-04-30 19:42 | 49.59546 | 4.66891 | 25277 ft | 396 kts | 269° |
| 2026-04-30 19:43 | 49.59563 | 4.62665 | 24817 ft | 394 kts | 269° |
| 2026-04-30 19:43 | 49.59577 | 4.58443 | 24357 ft | 393 kts | 269° |
| 2026-04-30 19:43 | 49.59591 | 4.54245 | 23900 ft | 392 kts | 269° |
| 2026-04-30 19:44 | 49.59625 | 4.45916 | 22969 ft | 386 kts | 269° |
| 2026-04-30 19:44 | 49.59639 | 4.41800 | 22577 ft | 382 kts | 269° |
| 2026-04-30 19:44 | 49.59650 | 4.37713 | 22117 ft | 380 kts | 269° |
| 2026-04-30 19:44 | 49.59656 | 4.33666 | 21700 ft | 377 kts | 269° |
| 2026-04-30 19:45 | 49.59660 | 4.29631 | 21296 ft | 374 kts | 269° |
| 2026-04-30 19:45 | 49.59662 | 4.25647 | 20936 ft | 370 kts | 269° |
| 2026-04-30 19:45 | 49.59665 | 4.21696 | 20521 ft | 368 kts | 269° |
| 2026-04-30 19:45 | 49.59667 | 4.17761 | 20122 ft | 366 kts | 269° |
| 2026-04-30 19:46 | 49.59669 | 4.13858 | 19752 ft | 363 kts | 269° |
| 2026-04-30 19:46 | 49.59596 | 4.09989 | 19381 ft | 359 kts | 262° |
| 2026-04-30 19:46 | 49.59057 | 4.06254 | 19020 ft | 354 kts | 249° |
| 2026-04-30 19:46 | 49.58032 | 4.02839 | 18662 ft | 349 kts | 236° |
| 2026-04-30 19:47 | 49.56720 | 3.99713 | 18256 ft | 347 kts | 234° |
| 2026-04-30 19:47 | 49.55850 | 3.97655 | 17988 ft | 345 kts | 234° |
| 2026-04-30 19:47 | 49.54107 | 3.93523 | 17453 ft | 342 kts | 234° |
| 2026-04-30 19:47 | 49.52812 | 3.90456 | 17073 ft | 340 kts | 234° |
| 2026-04-30 19:48 | 49.51527 | 3.87419 | 16697 ft | 338 kts | 234° |
| 2026-04-30 19:48 | 49.50261 | 3.84431 | 16339 ft | 336 kts | 234° |
| 2026-04-30 19:48 | 49.48991 | 3.81428 | 15981 ft | 334 kts | 234° |
| 2026-04-30 19:48 | 49.47786 | 3.78383 | 15623 ft | 334 kts | 242° |
| 2026-04-30 19:49 | 49.46999 | 3.75037 | 15282 ft | 334 kts | 254° |
| 2026-04-30 19:49 | 49.45860 | 3.68151 | 14573 ft | 331 kts | 253° |
| 2026-04-30 19:49 | 49.45279 | 3.64738 | 14229 ft | 329 kts | 253° |
| 2026-04-30 19:50 | 49.44702 | 3.61343 | 13865 ft | 328 kts | 253° |
| 2026-04-30 19:50 | 49.44128 | 3.57968 | 13553 ft | 324 kts | 253° |
| 2026-04-30 19:50 | 49.43561 | 3.54639 | 13288 ft | 320 kts | 253° |
| 2026-04-30 19:50 | 49.42999 | 3.51340 | 13029 ft | 318 kts | 253° |
| 2026-04-30 19:51 | 49.42442 | 3.48067 | 12765 ft | 316 kts | 253° |
| 2026-04-30 19:51 | 49.41842 | 3.44827 | 12520 ft | 314 kts | 248° |
| 2026-04-30 19:51 | 49.41039 | 3.41728 | 12266 ft | 311 kts | 245° |
| 2026-04-30 19:51 | 49.40219 | 3.38659 | 12010 ft | 310 kts | 245° |
| 2026-04-30 19:52 | 49.39403 | 3.35609 | 11765 ft | 308 kts | 245° |
| 2026-04-30 19:52 | 49.38591 | 3.32572 | 11512 ft | 307 kts | 245° |
| 2026-04-30 19:52 | 49.37782 | 3.29555 | 11269 ft | 305 kts | 245° |
| 2026-04-30 19:52 | 49.36975 | 3.26551 | 11026 ft | 304 kts | 245° |
| 2026-04-30 19:53 | 49.36172 | 3.23564 | 10785 ft | 302 kts | 245° |
| 2026-04-30 19:53 | 49.35373 | 3.20598 | 10550 ft | 301 kts | 245° |
| 2026-04-30 19:53 | 49.34575 | 3.17644 | 10306 ft | 299 kts | 245° |
| 2026-04-30 19:53 | 49.33784 | 3.14716 | 10121 ft | 296 kts | 245° |
| 2026-04-30 19:54 | 49.32995 | 3.11801 | 9984 ft | 295 kts | 245° |
| 2026-04-30 19:54 | 49.32209 | 3.08904 | 9862 ft | 294 kts | 245° |
| 2026-04-30 19:54 | 49.31425 | 3.06017 | 9726 ft | 293 kts | 245° |
| 2026-04-30 19:54 | 49.30645 | 3.03138 | 9588 ft | 292 kts | 245° |
| 2026-04-30 19:55 | 49.29865 | 3.00267 | 9455 ft | 292 kts | 245° |
| 2026-04-30 19:55 | 49.29085 | 2.97392 | 9329 ft | 291 kts | 245° |
| 2026-04-30 19:55 | 49.28309 | 2.94532 | 9195 ft | 291 kts | 245° |
| 2026-04-30 19:55 | 49.27535 | 2.91676 | 9067 ft | 290 kts | 245° |
| 2026-04-30 19:56 | 49.26759 | 2.88827 | 8941 ft | 289 kts | 245° |
| 2026-04-30 19:56 | 49.25984 | 2.85992 | 8808 ft | 288 kts | 244° |
| 2026-04-30 19:56 | 49.25213 | 2.83175 | 8680 ft | 287 kts | 245° |
| 2026-04-30 19:56 | 49.24443 | 2.80364 | 8549 ft | 286 kts | 246° |
| 2026-04-30 19:57 | 49.23673 | 2.77553 | 8426 ft | 285 kts | 245° |
| 2026-04-30 19:57 | 49.22909 | 2.74762 | 8301 ft | 285 kts | 246° |
| 2026-04-30 19:57 | 49.22144 | 2.71972 | 8166 ft | 284 kts | 245° |
| 2026-04-30 19:57 | 49.21389 | 2.69229 | 8049 ft | 283 kts | 245° |
| 2026-04-30 19:58 | 49.20621 | 2.66460 | 7920 ft | 283 kts | 245° |
| 2026-04-30 19:58 | 49.19855 | 2.63694 | 7796 ft | 282 kts | 245° |
| 2026-04-30 19:58 | 49.19092 | 2.60934 | 7669 ft | 281 kts | 245° |
| 2026-04-30 19:58 | 49.18406 | 2.58146 | 7548 ft | 281 kts | 253° |
| 2026-04-30 19:59 | 49.18068 | 2.55205 | 7426 ft | 282 kts | 264° |
| 2026-04-30 19:59 | 49.18004 | 2.52211 | 7304 ft | 281 kts | 267° |
| 2026-04-30 19:59 | 49.17880 | 2.46250 | 7062 ft | 280 kts | 266° |
| 2026-04-30 20:00 | 49.17812 | 2.43280 | 6943 ft | 279 kts | 267° |
| 2026-04-30 20:00 | 49.17743 | 2.40324 | 6819 ft | 278 kts | 266° |
| 2026-04-30 20:00 | 49.17674 | 2.37376 | 6698 ft | 277 kts | 266° |
| 2026-04-30 20:00 | 49.17553 | 2.34439 | 6577 ft | 276 kts | 264° |
| 2026-04-30 20:01 | 49.17168 | 2.28626 | 6305 ft | 274 kts | 262° |
| 2026-04-30 20:01 | 49.16963 | 2.25734 | 6180 ft | 273 kts | 262° |
| 2026-04-30 20:01 | 49.16761 | 2.22852 | 6048 ft | 272 kts | 262° |
| 2026-04-30 20:02 | 49.16163 | 2.17253 | 5800 ft | 264 kts | 243° |
| 2026-04-30 20:02 | 49.15150 | 2.15051 | 5666 ft | 248 kts | 221° |
| 2026-04-30 20:03 | 49.12201 | 2.13188 | 5414 ft | 224 kts | 180° |
| 2026-04-30 20:03 | 49.10697 | 2.13520 | 5286 ft | 214 kts | 166° |
| 2026-04-30 20:03 | 49.09297 | 2.14089 | 5223 ft | 203 kts | 167° |
| 2026-04-30 20:03 | 49.07977 | 2.14608 | 5175 ft | 189 kts | 167° |
| 2026-04-30 20:04 | 49.06757 | 2.15085 | 5050 ft | 171 kts | 168° |
| 2026-04-30 20:04 | 49.05684 | 2.15510 | 4992 ft | 149 kts | 167° |
| 2026-04-30 20:04 | 49.04706 | 2.15895 | 4914 ft | 143 kts | 168° |
| 2026-04-30 20:05 | 49.02791 | 2.16645 | 4774 ft | 141 kts | 168° |
| 2026-04-30 20:05 | 49.01858 | 2.17086 | 4709 ft | 141 kts | 156° |
| 2026-04-30 20:05 | 49.00696 | 2.19456 | 4535 ft | 149 kts | 103° |
| 2026-04-30 20:06 | 49.00721 | 2.21045 | 4372 ft | 151 kts | 89° |
| 2026-04-30 20:06 | 49.00814 | 2.22625 | 4208 ft | 148 kts | 90° |
| 2026-04-30 20:06 | 49.00903 | 2.24180 | 4020 ft | 146 kts | 91° |
| 2026-04-30 20:06 | 49.00990 | 2.25716 | 3829 ft | 145 kts | 90° |
| 2026-04-30 20:07 | 49.01076 | 2.27234 | 3644 ft | 142 kts | 90° |
| 2026-04-30 20:07 | 49.01160 | 2.28719 | 3457 ft | 140 kts | 91° |
| 2026-04-30 20:07 | 49.01323 | 2.31646 | 3053 ft | 137 kts | 91° |
| 2026-04-30 20:08 | 49.01403 | 2.33066 | 2884 ft | 136 kts | 90° |
| 2026-04-30 20:08 | 49.01488 | 2.34491 | 2716 ft | 135 kts | 90° |
| 2026-04-30 20:08 | 49.01566 | 2.35908 | 2519 ft | 134 kts | 91° |
| 2026-04-30 20:08 | 49.01644 | 2.37317 | 2325 ft | 133 kts | 89° |
| 2026-04-30 20:09 | 49.01725 | 2.38719 | 2197 ft | 133 kts | 91° |
| 2026-04-30 20:09 | 49.01814 | 2.40125 | 2021 ft | 133 kts | 90° |
| 2026-04-30 20:09 | 49.01947 | 2.42916 | 1653 ft | 132 kts | 90° |
| 2026-04-30 20:10 | 49.02106 | 2.45725 | 1287 ft | 133 kts | 88° |
| 2026-04-30 20:10 | 49.02184 | 2.47119 | 1102 ft | 133 kts | 86° |
| 2026-04-30 20:10 | 49.02253 | 2.48535 | 879 ft | 134 kts | 85° |
| 2026-04-30 20:11 | 49.02413 | 2.51349 | 505 ft | 133 kts | 84° |
| 2026-04-30 20:11 | 49.02488 | 2.52738 | 371 ft | 130 kts | 84° |
| 2026-04-30 20:11 | 49.02573 | 2.54052 | 375 ft | 117 kts | 82° |
| 2026-04-30 20:12 | 49.02754 | 2.56901 | 1605 ft | 147 kts | 86° |
| 2026-04-30 20:12 | 49.02884 | 2.58490 | 2301 ft | 160 kts | 86° |
| 2026-04-30 20:12 | 49.03081 | 2.60266 | 2565 ft | 182 kts | 84° |
| 2026-04-30 20:13 | 49.03306 | 2.62307 | 2909 ft | 205 kts | 87° |
| 2026-04-30 20:13 | 49.03382 | 2.64504 | 3586 ft | 212 kts | 93° |
| 2026-04-30 20:13 | 49.03390 | 2.66812 | 3929 ft | 221 kts | 93° |
| 2026-04-30 20:13 | 49.03633 | 2.69139 | 3997 ft | 227 kts | 71° |
| 2026-04-30 20:14 | 49.04484 | 2.71181 | 4010 ft | 232 kts | 49° |
| 2026-04-30 20:14 | 49.05780 | 2.72655 | 4010 ft | 236 kts | 23° |
| 2026-04-30 20:14 | 49.07406 | 2.72885 | 4643 ft | 239 kts | 347° |
| 2026-04-30 20:14 | 49.08870 | 2.71775 | 5458 ft | 237 kts | 314° |
| 2026-04-30 20:15 | 49.09935 | 2.69856 | 6190 ft | 238 kts | 304° |
| 2026-04-30 20:15 | 49.10884 | 2.67779 | 6924 ft | 242 kts | 303° |
| 2026-04-30 20:15 | 49.11812 | 2.65663 | 7126 ft | 242 kts | 302° |
| 2026-04-30 20:15 | 49.12749 | 2.63527 | 7192 ft | 242 kts | 302° |
| 2026-04-30 20:16 | 49.13684 | 2.61399 | 7191 ft | 241 kts | 302° |
| 2026-04-30 20:16 | 49.14620 | 2.59272 | 7194 ft | 241 kts | 301° |
| 2026-04-30 20:16 | 49.15245 | 2.56940 | 7197 ft | 238 kts | 278° |
| 2026-04-30 20:16 | 49.15447 | 2.54438 | 7195 ft | 237 kts | 272° |
| 2026-04-30 20:17 | 49.15576 | 2.51928 | 7194 ft | 237 kts | 272° |
| 2026-04-30 20:17 | 49.15692 | 2.49417 | 7193 ft | 237 kts | 272° |
| 2026-04-30 20:17 | 49.15819 | 2.46905 | 7192 ft | 237 kts | 272° |
| 2026-04-30 20:17 | 49.15940 | 2.44390 | 7192 ft | 237 kts | 272° |
| 2026-04-30 20:18 | 49.16047 | 2.41878 | 7195 ft | 237 kts | 272° |
| 2026-04-30 20:18 | 49.16159 | 2.39363 | 7193 ft | 237 kts | 272° |
| 2026-04-30 20:18 | 49.16272 | 2.36852 | 7193 ft | 237 kts | 272° |
| 2026-04-30 20:18 | 49.16389 | 2.34337 | 7193 ft | 237 kts | 272° |
| 2026-04-30 20:19 | 49.16496 | 2.31825 | 7190 ft | 236 kts | 266° |
| 2026-04-30 20:19 | 49.16301 | 2.30212 | 7188 ft | 233 kts | 244° |
| 2026-04-30 20:19 | 49.15014 | 2.27615 | 7193 ft | 230 kts | 223° |
| 2026-04-30 20:19 | 49.13874 | 2.25917 | 7002 ft | 228 kts | 222° |
| 2026-04-30 20:20 | 49.12720 | 2.24250 | 6687 ft | 228 kts | 222° |
| 2026-04-30 20:20 | 49.11642 | 2.22499 | 6370 ft | 227 kts | 238° |
| 2026-04-30 20:20 | 49.11147 | 2.20225 | 6059 ft | 228 kts | 259° |
| 2026-04-30 20:20 | 49.10941 | 2.17839 | 5779 ft | 226 kts | 262° |
| 2026-04-30 20:21 | 49.10782 | 2.15465 | 5501 ft | 224 kts | 262° |
| 2026-04-30 20:21 | 49.10630 | 2.13133 | 5189 ft | 223 kts | 262° |
| 2026-04-30 20:21 | 49.10477 | 2.10752 | 4913 ft | 221 kts | 262° |
| 2026-04-30 20:21 | 49.10339 | 2.08452 | 4596 ft | 221 kts | 262° |
| 2026-04-30 20:22 | 49.10200 | 2.06070 | 4238 ft | 223 kts | 262° |
| 2026-04-30 20:22 | 49.09940 | 2.03791 | 4019 ft | 219 kts | 242° |
| 2026-04-30 20:22 | 49.08979 | 2.02073 | 4009 ft | 214 kts | 207° |
| 2026-04-30 20:22 | 49.07568 | 2.01526 | 4011 ft | 208 kts | 174° |
| 2026-04-30 20:23 | 49.06316 | 2.02307 | 4007 ft | 192 kts | 137° |
| 2026-04-30 20:23 | 49.05538 | 2.03853 | 4024 ft | 173 kts | 124° |
| 2026-04-30 20:23 | 49.04983 | 2.05312 | 4015 ft | 146 kts | 122° |
| 2026-04-30 20:23 | 49.04503 | 2.06624 | 4010 ft | 140 kts | 122° |
| 2026-04-30 20:24 | 49.04002 | 2.07988 | 4026 ft | 159 kts | 122° |
| 2026-04-30 20:24 | 49.03444 | 2.09492 | 4018 ft | 166 kts | 122° |
| 2026-04-30 20:24 | 49.02871 | 2.11024 | 4015 ft | 166 kts | 122° |
| 2026-04-30 20:24 | 49.02306 | 2.12556 | 4005 ft | 166 kts | 122° |
| 2026-04-30 20:25 | 49.01178 | 2.15624 | 4010 ft | 167 kts | 122° |
| 2026-04-30 20:25 | 49.00660 | 2.17217 | 4008 ft | 169 kts | 109° |
| 2026-04-30 20:26 | 49.00710 | 2.20851 | 4004 ft | 174 kts | 89° |
| 2026-04-30 20:26 | 49.00931 | 2.24524 | 4010 ft | 175 kts | 89° |
| 2026-04-30 20:26 | 49.01038 | 2.26374 | 4008 ft | 175 kts | 90° |
| 2026-04-30 20:27 | 49.01235 | 2.30029 | 3350 ft | 169 kts | 90° |
| 2026-04-30 20:27 | 49.01428 | 2.33497 | 2859 ft | 164 kts | 90° |
| 2026-04-30 20:28 | 49.01616 | 2.36881 | 2429 ft | 156 kts | 89° |
| 2026-04-30 20:28 | 49.01791 | 2.40013 | 2032 ft | 137 kts | 91° |
| 2026-04-30 20:29 | 49.01946 | 2.42834 | 1680 ft | 132 kts | 89° |
| 2026-04-30 20:30 | 49.02187 | 2.47018 | 1078 ft | 133 kts | 85° |
| 2026-04-30 20:30 | 49.02385 | 2.50763 | 600 ft | 131 kts | 84° |
| 2026-04-30 20:31 | 49.02566 | 2.54233 | 362 ft | 37 kts | 84° |
| 2026-04-30 20:32 | 49.02587 | 2.55210 | 359 ft | 27 kts | 107° |
| 2026-04-30 20:32 | 49.02502 | 2.55508 | 360 ft | 8 kts | 115° |
| 2026-04-30 20:33 | 49.02483 | 2.55568 | 357 ft | 0 kts | 122° |
| 2026-04-30 20:34 | 49.02417 | 2.55612 | 358 ft | 11 kts | 174° |
| 2026-04-30 20:34 | 49.02254 | 2.55631 | 354 ft | 15 kts | 176° |
| 2026-04-30 20:35 | 49.02181 | 2.55640 | 362 ft | 10 kts | 175° |
| 2026-04-30 20:35 | 49.02113 | 2.55648 | 354 ft | 11 kts | 175° |
| 2026-04-30 20:35 | 49.01925 | 2.55669 | 358 ft | 11 kts | 186° |
| 2026-04-30 20:36 | 49.01885 | 2.55584 | 358 ft | 10 kts | 265° |
| 2026-04-30 20:36 | 49.01883 | 2.55484 | 357 ft | 9 kts | 265° |
| 2026-04-30 20:36 | 49.01869 | 2.55231 | 354 ft | 17 kts | 265° |
| 2026-04-30 20:37 | 49.01861 | 2.55062 | 354 ft | 15 kts | 265° |
| 2026-04-30 20:37 | 49.01852 | 2.54908 | 354 ft | 14 kts | 264° |
| 2026-04-30 20:37 | 49.01844 | 2.54770 | 357 ft | 13 kts | 265° |
| 2026-04-30 20:37 | 49.01837 | 2.54643 | 354 ft | 12 kts | 265° |
| 2026-04-30 20:38 | 49.01831 | 2.54528 | 354 ft | 10 kts | 266° |
| 2026-04-30 20:38 | 49.01826 | 2.54423 | 357 ft | 10 kts | 265° |
| 2026-04-30 20:38 | 49.01806 | 2.54343 | 357 ft | 7 kts | 203° |
| 2026-04-30 20:39 | 49.01709 | 2.54305 | 354 ft | 7 kts | 195° |
| 2026-04-30 20:39 | 49.01678 | 2.54293 | 357 ft | 4 kts | 194° |
| 2026-04-30 20:39 | 49.01676 | 2.54292 | 356 ft | 0 kts | 194° |